createdAt,value
2019-05-13T00:01:16.183Z,93.30
2019-05-13T00:03:44.089Z,93.20
2019-05-13T00:06:13.447Z,93.30
2019-05-13T00:08:43.851Z,93.40
2019-05-13T00:11:10.801Z,93.50
2019-05-13T00:13:38.578Z,93.50
2019-05-13T00:16:06.401Z,93.70
2019-05-13T00:18:34.188Z,93.80
2019-05-13T00:21:03.641Z,94.00
2019-05-13T00:23:33.832Z,94.10
2019-05-13T00:26:03.582Z,94.30
2019-05-13T00:28:30.810Z,94.40
2019-05-13T00:30:58.622Z,94.40
2019-05-13T00:33:26.377Z,94.60
2019-05-13T00:35:54.174Z,94.70
2019-05-13T00:38:24.378Z,95.10
2019-05-13T00:40:51.521Z,95.30
2019-05-13T00:43:19.284Z,95.90
2019-05-13T00:45:47.061Z,96.10
2019-05-13T00:48:14.902Z,96.50
2019-05-13T00:50:44.330Z,96.70
2019-05-13T00:53:13.382Z,97.00
2019-05-13T00:55:41.312Z,97.30
2019-05-13T00:58:11.122Z,97.80
2019-05-13T01:00:38.671Z,98.10
2019-05-13T01:03:06.506Z,98.40
2019-05-13T01:05:34.365Z,98.70
2019-05-13T01:08:04.294Z,99.10
2019-05-13T01:10:31.625Z,99.50
2019-05-13T01:12:59.406Z,99.80
2019-05-13T01:15:27.202Z,99.90
2019-05-13T01:17:55.038Z,99.90
2019-05-13T01:20:23.536Z,99.90
2019-05-13T01:22:53.975Z,99.90
2019-05-13T01:25:21.121Z,99.90
2019-05-13T01:27:48.881Z,99.90
2019-05-13T01:30:17.042Z,99.90
2019-05-13T01:32:45.049Z,99.90
2019-05-13T01:35:14.857Z,99.90
2019-05-13T01:37:45.951Z,99.90
2019-05-13T01:40:13.569Z,99.90
2019-05-13T01:42:44.174Z,99.90
2019-05-13T01:45:13.480Z,99.90
2019-05-13T01:47:40.739Z,99.90
2019-05-13T01:50:08.583Z,99.90
2019-05-13T01:52:36.379Z,99.90
2019-05-13T01:55:04.376Z,99.90
2019-05-13T01:57:34.108Z,99.90
2019-05-13T02:00:04.528Z,99.90
2019-05-13T02:02:33.168Z,99.90
2019-05-13T02:05:00.816Z,99.90
2019-05-13T02:07:28.608Z,99.90
2019-05-13T02:09:56.819Z,99.90
2019-05-13T02:12:24.640Z,99.90
2019-05-13T02:14:53.432Z,99.90
2019-05-13T02:17:23.378Z,99.90
2019-05-13T02:19:50.880Z,99.90
2019-05-13T02:22:18.685Z,99.90
2019-05-13T02:24:46.511Z,99.90
2019-05-13T02:27:14.355Z,99.90
2019-05-13T02:29:43.627Z,99.90
2019-05-13T02:32:13.791Z,99.90
2019-05-13T02:34:43.719Z,99.90
2019-05-13T02:37:12.850Z,99.90
2019-05-13T02:39:42.748Z,99.90
2019-05-13T02:42:12.957Z,99.90
2019-05-13T02:44:39.693Z,99.90
2019-05-13T02:47:07.488Z,99.90
2019-05-13T02:49:35.268Z,99.90
2019-05-13T02:52:03.393Z,99.90
2019-05-13T02:54:34.116Z,99.90
2019-05-13T02:57:03.620Z,99.90
2019-05-13T02:59:33.451Z,99.90
2019-05-13T03:02:03.276Z,99.90
2019-05-13T03:04:32.483Z,99.90
2019-05-13T03:07:02.687Z,99.90
2019-05-13T03:09:32.186Z,99.90
2019-05-13T03:11:58.441Z,99.90
2019-05-13T03:14:26.236Z,99.90
2019-05-13T03:17:02.826Z,99.90
2019-05-13T03:19:32.979Z,99.90
2019-05-13T03:21:58.834Z,99.90
2019-05-13T03:24:26.680Z,99.90
2019-05-13T03:26:54.447Z,99.90
2019-05-13T03:29:22.459Z,99.90
2019-05-13T03:31:54.905Z,99.90
2019-05-13T03:34:25.526Z,99.90
2019-05-13T03:36:55.846Z,99.90
2019-05-13T03:39:22.249Z,99.90
2019-05-13T03:41:52.769Z,99.90
2019-05-13T03:44:23.804Z,99.90
2019-05-13T03:46:52.873Z,99.90
2019-05-13T03:49:23.467Z,99.90
2019-05-13T03:51:53.469Z,99.90
2019-05-13T03:54:22.666Z,99.90
2019-05-13T03:56:53.053Z,99.90
2019-05-13T03:59:22.448Z,99.90
2019-05-13T04:01:52.460Z,99.90
2019-05-13T04:04:23.006Z,99.90
2019-05-13T04:06:52.766Z,99.90
2019-05-13T04:09:27.561Z,99.90
2019-05-13T04:11:48.703Z,99.90
2019-05-13T04:14:16.976Z,99.90
2019-05-13T04:16:45.059Z,99.90
2019-05-13T04:19:13.125Z,99.90
2019-05-13T04:21:42.935Z,99.90
2019-05-13T04:24:12.197Z,99.90
2019-05-13T04:26:43.217Z,99.90
2019-05-13T04:29:12.981Z,99.90
2019-05-13T04:31:42.317Z,99.90
2019-05-13T04:34:12.103Z,99.90
2019-05-13T04:36:38.731Z,99.90
2019-05-13T04:39:06.516Z,99.90
2019-05-13T04:41:34.363Z,99.90
2019-05-13T04:44:02.727Z,99.90
2019-05-13T04:46:32.734Z,99.90
2019-05-13T04:49:02.163Z,99.90
2019-05-13T04:51:32.896Z,99.90
2019-05-13T04:54:02.835Z,99.90
2019-05-13T04:56:33.013Z,99.90
2019-05-13T04:59:02.996Z,99.90
2019-05-13T05:01:59.428Z,99.90
2019-05-13T05:04:30.933Z,99.90
2019-05-13T05:07:03.189Z,99.90
2019-05-13T05:12:54.676Z,99.90
2019-05-13T05:15:52.282Z,99.90
2019-05-13T05:18:38.316Z,99.90
2019-05-13T05:21:11.913Z,99.90
2019-05-13T05:24:02.577Z,99.90
2019-05-13T05:26:48.399Z,99.90
2019-05-13T05:29:21.754Z,99.90
2019-05-13T05:32:07.949Z,99.90
2019-05-13T05:35:13.712Z,99.90
2019-05-13T05:38:12.012Z,99.90
2019-05-13T05:40:42.607Z,99.90
2019-05-13T05:43:12.027Z,99.90
2019-05-13T05:45:41.270Z,99.90
2019-05-13T05:48:11.752Z,99.90
2019-05-13T05:50:42.399Z,99.90
2019-05-13T05:53:11.596Z,99.90
2019-05-13T05:55:41.275Z,99.90
2019-05-13T05:58:11.991Z,99.90
2019-05-13T06:00:41.642Z,99.90
2019-05-13T06:03:13.498Z,99.90
2019-05-13T06:05:41.783Z,99.90
2019-05-13T06:08:11.290Z,99.90
2019-05-13T06:10:49.658Z,99.90
2019-05-13T06:13:08.212Z,99.90
2019-05-13T06:15:36.015Z,99.90
2019-05-13T06:18:03.789Z,99.90
2019-05-13T06:20:31.799Z,99.90
2019-05-13T06:23:02.063Z,99.90
2019-05-13T06:25:33.306Z,99.90
2019-05-13T06:27:59.051Z,99.90
2019-05-13T06:30:26.874Z,99.90
2019-05-13T06:32:54.723Z,99.90
2019-05-13T06:35:22.587Z,99.90
2019-05-13T06:37:52.054Z,99.90
2019-05-13T06:40:21.422Z,99.90
2019-05-13T06:42:49.364Z,99.90
2019-05-13T06:45:17.234Z,99.90
2019-05-13T06:47:45.027Z,99.90
2019-05-13T06:50:13.446Z,99.90
2019-05-13T06:52:42.437Z,99.90
2019-05-13T06:55:11.591Z,99.90
2019-05-13T06:57:42.100Z,99.90
2019-05-13T07:00:12.029Z,99.90
2019-05-13T07:02:39.375Z,99.90
2019-05-13T07:05:07.311Z,99.90
2019-05-13T07:07:35.123Z,99.90
2019-05-13T07:10:03.347Z,99.90
2019-05-13T07:12:31.491Z,99.90
2019-05-13T07:15:02.253Z,99.90
2019-05-13T07:17:29.152Z,99.90
2019-05-13T07:19:57.081Z,99.90
2019-05-13T07:22:24.893Z,99.90
2019-05-13T07:24:53.008Z,99.90
2019-05-13T07:27:22.923Z,99.90
2019-05-13T07:29:51.474Z,99.90
2019-05-13T07:32:22.176Z,99.90
2019-05-13T07:34:53.139Z,99.90
2019-05-13T07:37:21.356Z,99.90
2019-05-13T07:39:49.189Z,99.90
2019-05-13T07:42:17.045Z,99.90
2019-05-13T07:44:44.824Z,99.90
2019-05-13T07:47:15.669Z,99.90
2019-05-13T07:49:42.187Z,99.90
2019-05-13T07:52:11.917Z,99.90
2019-05-13T07:54:41.522Z,99.90
2019-05-13T07:57:09.039Z,99.90
2019-05-13T07:59:36.918Z,99.90
2019-05-13T08:02:04.769Z,99.90
2019-05-13T08:04:33.770Z,99.90
2019-05-13T08:07:02.317Z,99.90
2019-05-13T08:09:31.998Z,99.90
2019-05-13T08:12:08.676Z,99.90
2019-05-13T08:14:29.479Z,99.90
2019-05-13T08:16:57.312Z,99.90
2019-05-13T08:19:25.107Z,99.00
2019-05-13T08:21:52.884Z,99.10
2019-05-13T08:24:22.627Z,99.20
2019-05-13T08:26:52.940Z,99.30
2019-05-13T08:29:21.653Z,97.50
2019-05-13T08:31:51.656Z,96.50
2019-05-13T08:34:22.335Z,96.00
2019-05-13T08:36:51.246Z,95.30
2019-05-13T08:39:18.273Z,94.50
2019-05-13T08:41:46.111Z,93.90
2019-05-13T08:44:14.007Z,92.70
2019-05-13T08:46:41.851Z,91.50
2019-05-13T08:49:11.904Z,91.00
2019-05-13T08:51:41.817Z,84.30
2019-05-13T08:54:11.416Z,79.00
2019-05-13T08:56:38.543Z,80.10
2019-05-13T08:59:06.403Z,80.30
2019-05-13T09:01:34.295Z,78.60
2019-05-13T09:04:02.716Z,77.80
2019-05-13T09:06:31.285Z,80.70
2019-05-13T09:08:59.233Z,78.70
2019-05-13T09:11:27.087Z,90.00
2019-05-13T09:13:54.888Z,81.60
2019-05-13T09:16:22.683Z,82.50
2019-05-13T09:18:52.122Z,83.00
2019-05-13T09:21:22.397Z,83.80
2019-05-13T09:23:51.531Z,82.40
2019-05-13T09:26:19.384Z,80.60
2019-05-13T09:28:47.164Z,79.60
2019-05-13T09:31:15.071Z,79.90
2019-05-13T09:33:43.176Z,79.10
2019-05-13T09:36:12.513Z,80.30
2019-05-13T09:38:41.857Z,82.10
2019-05-13T09:41:12.374Z,77.90
2019-05-13T09:43:41.843Z,77.00
2019-05-13T09:46:11.683Z,78.80
2019-05-13T09:48:38.592Z,78.50
2019-05-13T09:51:06.395Z,78.70
2019-05-13T09:53:34.170Z,77.70
2019-05-13T09:56:02.476Z,76.30
2019-05-13T09:58:32.917Z,77.40
2019-05-13T10:01:00.017Z,76.20
2019-05-13T10:03:29.770Z,77.00
2019-05-13T10:05:57.296Z,78.30
2019-05-13T10:08:25.148Z,79.50
2019-05-13T10:10:53.121Z,77.20
2019-05-13T10:13:23.067Z,76.40
2019-05-13T10:15:50.529Z,76.90
2019-05-13T10:18:18.356Z,77.10
2019-05-13T10:20:48.635Z,78.80
2019-05-13T10:23:16.488Z,77.80
2019-05-13T10:25:45.676Z,77.20
2019-05-13T10:28:14.492Z,78.30
2019-05-13T10:30:43.768Z,78.20
2019-05-13T10:33:12.669Z,78.60
2019-05-13T10:35:42.876Z,80.20
2019-05-13T10:38:13.423Z,79.20
2019-05-13T10:40:43.126Z,79.40
2019-05-13T10:43:28.793Z,75.50
2019-05-13T10:45:41.617Z,69.00
2019-05-13T10:48:10.395Z,70.60
2019-05-13T10:50:38.772Z,66.10
2019-05-13T10:53:06.644Z,66.50
2019-05-13T10:55:34.416Z,70.90
2019-05-13T10:58:02.607Z,72.10
2019-05-13T11:00:51.658Z,71.50
2019-05-13T11:03:19.476Z,70.10
2019-05-13T11:05:48.091Z,69.00
2019-05-13T11:08:15.923Z,69.00
2019-05-13T11:10:43.697Z,67.70
2019-05-13T11:13:11.966Z,65.90
2019-05-13T11:15:44.647Z,65.00
2019-05-13T11:20:38.675Z,56.70
2019-05-13T11:23:06.475Z,56.70
2019-05-13T11:25:34.263Z,56.10
2019-05-13T11:28:02.065Z,56.70
2019-05-13T11:30:31.970Z,57.10
2019-05-13T11:33:01.685Z,57.80
2019-05-13T11:35:29.019Z,58.30
2019-05-13T11:37:56.815Z,58.90
2019-05-13T11:40:24.588Z,59.30
2019-05-13T11:42:52.764Z,59.30
2019-05-13T11:45:22.303Z,58.30
2019-05-13T11:47:52.895Z,56.80
2019-05-13T11:50:22.353Z,53.80
2019-05-13T11:52:52.451Z,54.00
2019-05-13T11:55:22.939Z,52.40
2019-05-13T11:57:52.389Z,52.00
2019-05-13T12:00:24.247Z,52.60
2019-05-13T12:02:54.689Z,52.70
2019-05-13T12:05:22.697Z,52.10
2019-05-13T12:07:53.482Z,52.00
2019-05-13T12:10:22.789Z,50.70
2019-05-13T12:12:50.225Z,50.60
2019-05-13T12:15:28.762Z,51.00
2019-05-13T12:17:47.580Z,51.20
2019-05-13T12:20:15.415Z,50.60
2019-05-13T12:22:43.393Z,49.70
2019-05-13T12:25:13.853Z,49.30
2019-05-13T12:27:41.906Z,48.80
2019-05-13T12:30:12.404Z,48.30
2019-05-13T12:32:43.503Z,47.80
2019-05-13T12:35:08.861Z,48.20
2019-05-13T12:37:36.658Z,48.90
2019-05-13T12:40:04.771Z,49.10
2019-05-13T12:42:33.804Z,49.70
2019-05-13T12:45:09.272Z,50.40
2019-05-13T12:47:31.335Z,50.70
2019-05-13T12:50:02.749Z,51.00
2019-05-13T12:52:28.635Z,51.20
2019-05-13T12:54:56.611Z,51.80
2019-05-13T12:57:24.404Z,51.70
2019-05-13T12:59:52.216Z,50.50
2019-05-13T13:02:22.501Z,49.40
2019-05-13T13:07:21.677Z,49.20
2019-05-13T13:09:53.090Z,48.70
2019-05-13T13:12:18.655Z,49.20
2019-05-13T13:14:46.452Z,49.70
2019-05-13T13:17:14.463Z,49.70
2019-05-13T13:19:42.554Z,50.20
2019-05-13T13:22:13.200Z,50.50
2019-05-13T13:24:48.348Z,50.40
2019-05-13T13:27:18.875Z,50.50
2019-05-13T13:29:43.094Z,49.90
2019-05-13T13:32:09.119Z,50.10
2019-05-13T13:34:36.951Z,49.80
2019-05-13T13:39:34.344Z,48.60
2019-05-13T13:42:05.402Z,48.50
2019-05-13T13:44:35.066Z,49.20
2019-05-13T13:47:01.480Z,50.10
2019-05-13T13:49:34.522Z,51.00
2019-05-13T13:51:58.875Z,51.80
2019-05-13T13:54:26.667Z,52.30
2019-05-13T13:56:56.239Z,52.10
2019-05-13T13:59:25.032Z,51.50
2019-05-13T14:01:55.169Z,51.70
2019-05-13T14:04:22.579Z,51.60
2019-05-13T14:06:58.553Z,49.50
2019-05-13T14:07:12.875Z,48.60
2019-05-13T14:09:22.406Z,50.00
2019-05-13T14:11:51.518Z,49.40
2019-05-13T14:14:20.849Z,49.80
2019-05-13T14:16:48.500Z,49.20
2019-05-13T14:19:16.288Z,49.50
2019-05-13T14:21:44.088Z,49.30
2019-05-13T14:24:12.229Z,49.50
2019-05-13T14:26:43.175Z,50.00
2019-05-13T14:29:11.930Z,49.90
2019-05-13T14:31:41.403Z,50.10
2019-05-13T14:34:11.402Z,50.20
2019-05-13T14:36:38.407Z,50.50
2019-05-13T14:39:06.555Z,50.50
2019-05-13T14:41:34.858Z,50.70
2019-05-13T14:44:03.708Z,50.70
2019-05-13T14:46:46.333Z,51.30
2019-05-13T14:49:01.750Z,52.00
2019-05-13T14:51:29.599Z,52.10
2019-05-13T14:53:57.463Z,52.40
2019-05-13T14:56:25.320Z,51.90
2019-05-13T14:58:53.097Z,51.60
2019-05-13T15:01:22.700Z,51.50
2019-05-13T15:03:51.965Z,51.20
2019-05-13T15:06:22.110Z,51.00
2019-05-13T15:08:52.329Z,51.10
2019-05-13T15:11:21.766Z,50.70
2019-05-13T15:13:48.686Z,49.70
2019-05-13T15:16:16.608Z,49.70
2019-05-13T15:18:44.635Z,49.70
2019-05-13T15:21:12.438Z,49.40
2019-05-13T15:23:42.304Z,49.70
2019-05-13T15:26:11.674Z,49.50
2019-05-13T15:28:39.392Z,50.40
2019-05-13T15:31:07.194Z,50.00
2019-05-13T15:33:35.887Z,49.60
2019-05-13T15:36:03.892Z,49.40
2019-05-13T15:38:32.209Z,49.50
2019-05-13T15:41:01.880Z,49.80
2019-05-13T15:43:31.928Z,49.70
2019-05-13T15:46:01.169Z,50.20
2019-05-13T15:48:31.265Z,50.00
2019-05-13T15:50:58.404Z,49.50
2019-05-13T15:53:26.254Z,49.00
2019-05-13T15:55:54.023Z,48.70
2019-05-13T15:58:37.978Z,48.30
2019-05-13T16:00:52.403Z,47.30
2019-05-13T16:03:20.473Z,46.10
2019-05-13T16:05:48.244Z,41.80
2019-05-13T16:08:16.048Z,41.30
2019-05-13T16:10:43.824Z,42.30
2019-05-13T16:13:12.017Z,43.70
2019-05-13T16:15:41.603Z,44.50
2019-05-13T16:18:11.156Z,45.10
2019-05-13T16:20:42.593Z,45.90
2019-05-13T16:23:08.486Z,46.60
2019-05-13T16:25:36.255Z,47.00
2019-05-13T16:28:04.073Z,47.30
2019-05-13T16:30:32.407Z,47.90
2019-05-13T16:33:02.829Z,49.70
2019-05-13T16:35:31.886Z,50.40
2019-05-13T16:38:01.297Z,51.30
2019-05-13T16:40:33.332Z,52.10
2019-05-13T16:42:58.570Z,52.90
2019-05-13T16:45:26.403Z,53.00
2019-05-13T16:47:57.542Z,52.60
2019-05-13T16:50:23.714Z,53.00
2019-05-13T16:52:51.525Z,53.30
2019-05-13T16:55:21.176Z,53.60
2019-05-13T16:57:51.175Z,53.50
2019-05-13T17:00:19.006Z,53.20
2019-05-13T17:02:47.138Z,53.20
2019-05-13T17:05:15.055Z,53.10
2019-05-13T17:07:43.036Z,53.20
2019-05-13T17:10:12.511Z,53.30
2019-05-13T17:12:42.770Z,53.20
2019-05-13T17:15:10.571Z,52.90
2019-05-13T17:17:38.430Z,53.40
2019-05-13T17:20:06.492Z,52.70
2019-05-13T17:22:34.287Z,52.10
2019-05-13T17:25:02.683Z,52.20
2019-05-13T17:27:31.908Z,51.80
2019-05-13T17:30:01.905Z,52.10
2019-05-13T17:32:29.404Z,51.70
2019-05-13T17:34:57.202Z,51.70
2019-05-13T17:37:25.271Z,51.20
2019-05-13T17:39:53.063Z,50.50
2019-05-13T17:42:21.518Z,51.10
2019-05-13T17:44:51.527Z,50.30
2019-05-13T17:47:19.040Z,48.10
2019-05-13T17:49:47.605Z,48.80
2019-05-13T17:52:15.740Z,49.00
2019-05-13T17:54:43.536Z,49.60
2019-05-13T17:57:12.406Z,50.40
2019-05-13T17:59:41.825Z,49.90
2019-05-13T18:02:11.800Z,48.30
2019-05-13T18:04:41.361Z,47.10
2019-05-13T18:07:08.749Z,45.40
2019-05-13T18:09:36.623Z,44.50
2019-05-13T18:12:05.456Z,43.90
2019-05-13T18:14:33.300Z,44.10
2019-05-13T18:17:02.190Z,44.80
2019-05-13T18:19:31.695Z,46.10
2019-05-13T18:22:01.960Z,47.70
2019-05-13T18:24:31.832Z,48.70
2019-05-13T18:27:01.158Z,50.00
2019-05-13T18:31:55.831Z,50.60
2019-05-13T18:34:23.636Z,51.80
2019-05-13T18:36:51.715Z,52.40
2019-05-13T18:39:21.635Z,52.90
2019-05-13T18:41:49.151Z,53.70
2019-05-13T18:44:17.008Z,55.00
2019-05-13T18:46:44.780Z,55.90
2019-05-13T18:49:12.597Z,56.80
2019-05-13T18:51:42.209Z,57.60
2019-05-13T18:54:11.924Z,58.20
2019-05-13T18:56:41.614Z,58.80
2019-05-13T18:59:09.099Z,59.40
2019-05-13T19:01:36.900Z,59.80
2019-05-13T19:04:04.695Z,60.40
2019-05-13T19:06:32.509Z,61.10
2019-05-13T19:09:02.144Z,62.30
2019-05-13T19:11:31.707Z,62.90
2019-05-13T19:13:59.623Z,63.60
2019-05-13T19:16:27.512Z,64.10
2019-05-13T19:18:55.423Z,64.60
2019-05-13T19:21:23.220Z,65.30
2019-05-13T19:23:51.373Z,65.80
2019-05-13T19:26:21.665Z,66.60
2019-05-13T19:28:48.831Z,67.30
2019-05-13T19:31:16.632Z,68.00
2019-05-13T19:33:44.509Z,68.30
2019-05-13T19:36:12.424Z,69.30
2019-05-13T19:38:42.253Z,69.70
2019-05-13T19:41:11.654Z,70.10
2019-05-13T19:43:41.598Z,76.80
2019-05-13T19:46:09.188Z,70.90
2019-05-13T19:48:37.036Z,71.60
2019-05-13T19:51:04.920Z,71.90
2019-05-13T19:53:32.702Z,72.20
2019-05-13T19:56:01.405Z,73.00
2019-05-13T19:58:29.527Z,73.70
2019-05-13T20:00:57.420Z,74.30
2019-05-13T20:03:25.254Z,74.90
2019-05-13T20:05:53.148Z,75.40
2019-05-13T20:08:21.216Z,75.90
2019-05-13T20:10:51.353Z,76.20
2019-05-13T20:13:18.595Z,76.30
2019-05-13T20:15:46.383Z,77.00
2019-05-13T20:18:14.164Z,77.40
2019-05-13T20:20:41.967Z,78.10
2019-05-13T20:23:11.887Z,79.80
2019-05-13T20:25:41.587Z,79.70
2019-05-13T20:28:11.417Z,79.30
2019-05-13T20:30:39.200Z,79.60
2019-05-13T20:33:07.061Z,80.30
2019-05-13T20:35:34.924Z,82.50
2019-05-13T20:38:02.837Z,84.00
2019-05-13T20:40:32.278Z,86.40
2019-05-13T20:43:01.930Z,87.80
2019-05-13T20:45:31.215Z,89.50
2019-05-13T20:48:01.346Z,90.80
2019-05-13T20:50:28.872Z,91.70
2019-05-13T20:52:56.752Z,92.90
2019-05-13T20:55:24.520Z,93.90
2019-05-13T20:57:53.116Z,95.10
2019-05-13T21:00:21.206Z,95.90
2019-05-13T21:02:51.503Z,96.90
2019-05-13T21:05:21.405Z,98.00
2019-05-13T21:07:48.567Z,98.70
2019-05-13T21:10:16.488Z,99.30
2019-05-13T21:12:44.301Z,99.90
2019-05-13T21:15:13.015Z,99.90
2019-05-13T21:17:41.179Z,99.90
2019-05-13T21:20:21.426Z,99.90
2019-05-13T21:22:38.661Z,99.90
2019-05-13T21:25:06.675Z,99.90
2019-05-13T21:27:34.575Z,99.90
2019-05-13T21:30:02.498Z,99.90
2019-05-13T21:32:30.313Z,99.90
2019-05-13T21:34:58.079Z,99.90
2019-05-13T21:37:25.915Z,99.90
2019-05-13T21:39:53.687Z,99.90
2019-05-13T21:42:21.736Z,99.90
2019-05-13T21:44:51.264Z,99.90
2019-05-13T21:47:19.363Z,99.90
2019-05-13T21:49:47.222Z,99.90
2019-05-13T21:52:15.095Z,99.90
2019-05-13T21:54:42.863Z,99.90
2019-05-13T21:57:11.446Z,99.90
2019-05-13T21:59:41.271Z,99.90
2019-05-13T22:02:09.211Z,99.90
2019-05-13T22:04:36.984Z,99.90
2019-05-13T22:07:04.776Z,99.90
2019-05-13T22:09:32.802Z,99.90
2019-05-13T22:12:01.792Z,99.90
2019-05-13T22:14:32.061Z,99.90
2019-05-13T22:17:01.552Z,99.90
2019-05-13T22:19:31.422Z,99.90
2019-05-13T22:21:58.629Z,99.90
2019-05-13T22:24:26.456Z,99.90
2019-05-13T22:26:54.326Z,99.90
2019-05-13T22:29:23.184Z,99.90
2019-05-13T22:31:51.460Z,99.90
2019-05-13T22:34:21.132Z,99.90
2019-05-13T22:36:48.884Z,99.90
2019-05-13T22:39:16.758Z,99.90
2019-05-13T22:41:44.603Z,99.90
2019-05-13T22:44:12.567Z,99.90
2019-05-13T22:46:41.344Z,99.90
2019-05-13T22:49:11.433Z,99.90
2019-05-13T22:51:41.067Z,99.90
2019-05-13T22:54:08.495Z,99.90
2019-05-13T22:56:36.312Z,99.90
2019-05-13T22:59:04.099Z,99.90
2019-05-13T23:01:32.407Z,99.90
2019-05-13T23:04:02.176Z,99.90
2019-05-13T23:06:32.165Z,99.90
2019-05-13T23:09:01.742Z,99.90
2019-05-13T23:11:31.009Z,99.90
2019-05-13T23:14:09.012Z,99.90
2019-05-13T23:16:28.182Z,99.90
2019-05-13T23:18:55.968Z,99.90
2019-05-13T23:21:23.741Z,99.90
2019-05-13T23:23:51.605Z,99.90
2019-05-13T23:26:21.066Z,99.90
2019-05-13T23:28:49.054Z,99.90
2019-05-13T23:31:16.895Z,99.90
2019-05-13T23:33:44.680Z,99.90
2019-05-13T23:36:12.446Z,99.90
2019-05-13T23:38:41.407Z,99.90
2019-05-13T23:41:11.481Z,99.90
2019-05-13T23:43:38.914Z,99.90
2019-05-13T23:46:06.684Z,99.90
2019-05-13T23:48:34.475Z,99.90
2019-05-13T23:51:02.303Z,99.90
2019-05-13T23:53:31.566Z,99.90
2019-05-13T23:56:01.767Z,99.90
2019-05-13T23:58:29.379Z,99.90
